This is the latest recevied weather packets stored in our database for station/object PP5ABU-13. If no packets are shown the sender has not sent any weather packets the latest 10 day(s).
| Time | Temp. | Humidity | Pressure | Rain* | Wind** | Luminosity | Snow |
|---|---|---|---|---|---|---|---|
| 1778082304 | 27.78° C | 74% | 1015.4 hPa | 0 mm | - | - | - |
| 1778081404 | 27.78° C | 75% | 1015.8 hPa | 0 mm | - | - | - |
| 1778080504 | 27.22° C | 78% | 1015.9 hPa | 0 mm | - | - | - |
| 1778079604 | 27.22° C | 80% | 1016.2 hPa | 0 mm | - | - | - |
| 1778078704 | 26.11° C | 84% | 1016.6 hPa | 0 mm | - | - | - |
| 1778077804 | 25.56° C | 86% | 1016.9 hPa | 0 mm | - | - | - |
| 1778076904 | 25° C | 89% | 1017.2 hPa | 0 mm | - | - | - |
| 1778076004 | 23.89° C | 93% | 1017.4 hPa | 0 mm | - | - | - |
| 1778075104 | 24.44° C | 94% | 1017.7 hPa | 0 mm | - | - | - |
| 1778074204 | 23.89° C | 100% | 1017.8 hPa | 0 mm | - | - | - |
| 1778073304 | 23.33° C | 99% | 1017.7 hPa | 0 mm | - | - | - |
| 1778072405 | 23.33° C | 99% | 1017.9 hPa | 0 mm | - | - | - |
| 1778071504 | 23.33° C | 99% | 1017.7 hPa | 0 mm | - | - | - |
| 1778070604 | 23.33° C | 99% | 1017.5 hPa | 0 mm | - | - | - |
| 1778069704 | 22.78° C | 99% | 1017.7 hPa | 0 mm | - | - | - |
| 1778068804 | 22.22° C | 99% | 1017.7 hPa | 0 mm | - | - | - |
| 1778067904 | 22.22° C | 99% | 1017.8 hPa | 0 mm | - | - | - |
| 1778067004 | 21.67° C | 99% | 1017.4 hPa | 0 mm | - | - | - |
| 1778066104 | 21.67° C | 99% | 1017.4 hPa | 0 mm | - | - | - |
| 1778065204 | 21.67° C | 99% | 1017.2 hPa | 0 mm | - | - | - |
| 1778064305 | 21.11° C | 99% | 1017.2 hPa | 0 mm | - | - | - |
| 1778063404 | 21.11° C | 99% | 1017 hPa | 0 mm | - | - | - |
| 1778062504 | 20.56° C | 99% | 1016.6 hPa | 0 mm | - | - | - |
| 1778061605 | 20.56° C | 99% | 1016.4 hPa | 0 mm | - | - | - |
| 1778060704 | 20.56° C | 99% | 1016.3 hPa | 0 mm | - | - | - |
* Rain latest hour (hover to see other rain measurements)
** Current wind speed in m/s (hover to see current wind gust speed)